sensor_id;sensor_type;location;lat;lon;timestamp;P1;durP1;ratioP1;P2;durP2;ratioP2
61152;SDS011;47030;50.732;4.286;2022-09-09T00:10:15;8.65;;;2.25;;
61152;SDS011;47030;50.732;4.286;2022-09-09T00:15:20;8.10;;;2.28;;
61152;SDS011;47030;50.732;4.286;2022-09-09T00:23:50;6.65;;;1.90;;
61152;SDS011;47030;50.732;4.286;2022-09-09T00:31:37;4.70;;;2.20;;
61152;SDS011;47030;50.732;4.286;2022-09-09T00:34:13;4.82;;;1.67;;
61152;SDS011;47030;50.732;4.286;2022-09-09T00:36:43;7.57;;;1.80;;
61152;SDS011;47030;50.732;4.286;2022-09-09T00:39:19;6.35;;;1.80;;
61152;SDS011;47030;50.732;4.286;2022-09-09T00:42:17;7.15;;;1.95;;
61152;SDS011;47030;50.732;4.286;2022-09-09T00:44:59;5.03;;;2.03;;
61152;SDS011;47030;50.732;4.286;2022-09-09T00:56:12;5.37;;;1.70;;
61152;SDS011;47030;50.732;4.286;2022-09-09T00:58:43;5.28;;;1.75;;
61152;SDS011;47030;50.732;4.286;2022-09-09T01:01:30;4.75;;;1.87;;
61152;SDS011;47030;50.732;4.286;2022-09-09T01:03:56;8.82;;;1.87;;
61152;SDS011;47030;50.732;4.286;2022-09-09T01:09:02;5.07;;;1.98;;
61152;SDS011;47030;50.732;4.286;2022-09-09T01:14:22;6.35;;;1.85;;
61152;SDS011;47030;50.732;4.286;2022-09-09T01:16:50;5.75;;;2.12;;
61152;SDS011;47030;50.732;4.286;2022-09-09T01:19:27;4.97;;;2.20;;
61152;SDS011;47030;50.732;4.286;2022-09-09T01:22:14;8.40;;;2.05;;
61152;SDS011;47030;50.732;4.286;2022-09-09T01:27:16;7.57;;;2.30;;
61152;SDS011;47030;50.732;4.286;2022-09-09T01:29:45;9.80;;;2.40;;
61152;SDS011;47030;50.732;4.286;2022-09-09T01:35:05;8.95;;;2.40;;
61152;SDS011;47030;50.732;4.286;2022-09-09T01:37:36;8.13;;;1.95;;
61152;SDS011;47030;50.732;4.286;2022-09-09T01:40:02;7.65;;;2.42;;
61152;SDS011;47030;50.732;4.286;2022-09-09T01:42:28;5.57;;;2.47;;
61152;SDS011;47030;50.732;4.286;2022-09-09T01:44:54;5.32;;;2.05;;
61152;SDS011;47030;50.732;4.286;2022-09-09T01:47:20;10.90;;;2.58;;
61152;SDS011;47030;50.732;4.286;2022-09-09T01:49:46;8.23;;;2.45;;
61152;SDS011;47030;50.732;4.286;2022-09-09T01:52:11;7.82;;;3.03;;
61152;SDS011;47030;50.732;4.286;2022-09-09T01:54:37;8.02;;;3.30;;
61152;SDS011;47030;50.732;4.286;2022-09-09T01:59:40;10.63;;;2.60;;
61152;SDS011;47030;50.732;4.286;2022-09-09T02:05:32;8.05;;;2.83;;
61152;SDS011;47030;50.732;4.286;2022-09-09T02:08:06;9.52;;;2.92;;
61152;SDS011;47030;50.732;4.286;2022-09-09T02:10:42;8.32;;;2.75;;
61152;SDS011;47030;50.732;4.286;2022-09-09T02:13:14;14.25;;;2.92;;
61152;SDS011;47030;50.732;4.286;2022-09-09T02:18:32;9.85;;;3.00;;
61152;SDS011;47030;50.732;4.286;2022-09-09T02:21:12;9.35;;;2.40;;
61152;SDS011;47030;50.732;4.286;2022-09-09T02:23:39;11.15;;;3.03;;
61152;SDS011;47030;50.732;4.286;2022-09-09T02:26:07;9.68;;;2.80;;
61152;SDS011;47030;50.732;4.286;2022-09-09T02:28:38;12.75;;;3.00;;
61152;SDS011;47030;50.732;4.286;2022-09-09T02:31:05;10.57;;;2.90;;
61152;SDS011;47030;50.732;4.286;2022-09-09T02:33:39;10.90;;;3.03;;
61152;SDS011;47030;50.732;4.286;2022-09-09T02:36:09;15.23;;;3.55;;
61152;SDS011;47030;50.732;4.286;2022-09-09T02:38:42;9.32;;;3.12;;
61152;SDS011;47030;50.732;4.286;2022-09-09T02:41:10;8.68;;;2.67;;
61152;SDS011;47030;50.732;4.286;2022-09-09T02:43:36;8.00;;;2.87;;
61152;SDS011;47030;50.732;4.286;2022-09-09T02:51:35;8.98;;;2.67;;
61152;SDS011;47030;50.732;4.286;2022-09-09T02:54:17;10.77;;;2.72;;
61152;SDS011;47030;50.732;4.286;2022-09-09T02:56:59;8.60;;;2.65;;
61152;SDS011;47030;50.732;4.286;2022-09-09T02:59:39;6.53;;;2.40;;
61152;SDS011;47030;50.732;4.286;2022-09-09T03:02:06;8.82;;;2.62;;
61152;SDS011;47030;50.732;4.286;2022-09-09T03:04:32;10.23;;;2.97;;
61152;SDS011;47030;50.732;4.286;2022-09-09T03:06:58;11.32;;;3.12;;
61152;SDS011;47030;50.732;4.286;2022-09-09T03:09:24;10.50;;;2.72;;
61152;SDS011;47030;50.732;4.286;2022-09-09T03:11:51;9.75;;;3.00;;
61152;SDS011;47030;50.732;4.286;2022-09-09T03:14:17;10.45;;;2.87;;
61152;SDS011;47030;50.732;4.286;2022-09-09T03:16:46;8.02;;;2.53;;
61152;SDS011;47030;50.732;4.286;2022-09-09T03:19:12;10.32;;;2.83;;
61152;SDS011;47030;50.732;4.286;2022-09-09T03:21:38;9.15;;;3.08;;
61152;SDS011;47030;50.732;4.286;2022-09-09T03:24:04;12.80;;;2.90;;
61152;SDS011;47030;50.732;4.286;2022-09-09T03:26:31;8.88;;;2.75;;
61152;SDS011;47030;50.732;4.286;2022-09-09T03:28:57;13.55;;;3.42;;
61152;SDS011;47030;50.732;4.286;2022-09-09T03:31:25;9.77;;;3.05;;
61152;SDS011;47030;50.732;4.286;2022-09-09T03:33:55;9.73;;;2.80;;
61152;SDS011;47030;50.732;4.286;2022-09-09T03:36:23;11.55;;;2.90;;
61152;SDS011;47030;50.732;4.286;2022-09-09T03:38:49;9.88;;;3.08;;
61152;SDS011;47030;50.732;4.286;2022-09-09T03:41:15;8.45;;;2.62;;
61152;SDS011;47030;50.732;4.286;2022-09-09T03:43:42;11.43;;;3.12;;
61152;SDS011;47030;50.732;4.286;2022-09-09T03:46:07;12.68;;;3.35;;
61152;SDS011;47030;50.732;4.286;2022-09-09T03:48:33;9.82;;;3.10;;
61152;SDS011;47030;50.732;4.286;2022-09-09T03:50:59;13.45;;;2.92;;
61152;SDS011;47030;50.732;4.286;2022-09-09T03:53:26;12.80;;;3.20;;
61152;SDS011;47030;50.732;4.286;2022-09-09T03:55:53;10.95;;;2.90;;
61152;SDS011;47030;50.732;4.286;2022-09-09T03:58:23;14.93;;;3.17;;
61152;SDS011;47030;50.732;4.286;2022-09-09T04:00:59;10.60;;;2.97;;
61152;SDS011;47030;50.732;4.286;2022-09-09T04:03:30;10.50;;;2.60;;
61152;SDS011;47030;50.732;4.286;2022-09-09T04:05:57;9.50;;;2.58;;
61152;SDS011;47030;50.732;4.286;2022-09-09T04:08:24;9.52;;;2.70;;
61152;SDS011;47030;50.732;4.286;2022-09-09T04:10:50;9.20;;;2.72;;
61152;SDS011;47030;50.732;4.286;2022-09-09T04:13:17;14.68;;;3.53;;
61152;SDS011;47030;50.732;4.286;2022-09-09T04:15:49;13.88;;;2.87;;
61152;SDS011;47030;50.732;4.286;2022-09-09T04:18:19;11.57;;;3.03;;
61152;SDS011;47030;50.732;4.286;2022-09-09T04:20:47;11.05;;;3.00;;
61152;SDS011;47030;50.732;4.286;2022-09-09T04:23:16;8.45;;;3.15;;
61152;SDS011;47030;50.732;4.286;2022-09-09T04:25:49;12.45;;;3.37;;
61152;SDS011;47030;50.732;4.286;2022-09-09T04:28:17;11.63;;;3.33;;
61152;SDS011;47030;50.732;4.286;2022-09-09T04:30:44;10.48;;;3.35;;
61152;SDS011;47030;50.732;4.286;2022-09-09T04:33:11;12.10;;;3.40;;
61152;SDS011;47030;50.732;4.286;2022-09-09T04:35:38;11.35;;;3.25;;
61152;SDS011;47030;50.732;4.286;2022-09-09T04:38:04;12.65;;;3.00;;
61152;SDS011;47030;50.732;4.286;2022-09-09T04:40:34;15.50;;;3.33;;
61152;SDS011;47030;50.732;4.286;2022-09-09T04:43:00;10.20;;;3.40;;
61152;SDS011;47030;50.732;4.286;2022-09-09T04:45:28;10.93;;;3.37;;
61152;SDS011;47030;50.732;4.286;2022-09-09T04:47:54;14.38;;;3.53;;
61152;SDS011;47030;50.732;4.286;2022-09-09T04:50:20;10.68;;;3.33;;
61152;SDS011;47030;50.732;4.286;2022-09-09T04:52:46;13.02;;;3.58;;
61152;SDS011;47030;50.732;4.286;2022-09-09T04:55:11;10.85;;;3.67;;
61152;SDS011;47030;50.732;4.286;2022-09-09T04:57:38;10.30;;;3.42;;
61152;SDS011;47030;50.732;4.286;2022-09-09T05:00:04;12.23;;;3.35;;
61152;SDS011;47030;50.732;4.286;2022-09-09T05:02:31;11.25;;;3.22;;
61152;SDS011;47030;50.732;4.286;2022-09-09T05:04:57;9.30;;;3.10;;
61152;SDS011;47030;50.732;4.286;2022-09-09T05:07:23;10.50;;;3.60;;
61152;SDS011;47030;50.732;4.286;2022-09-09T05:09:51;12.55;;;3.25;;
61152;SDS011;47030;50.732;4.286;2022-09-09T05:12:17;9.90;;;3.35;;
61152;SDS011;47030;50.732;4.286;2022-09-09T05:14:43;19.45;;;3.72;;
61152;SDS011;47030;50.732;4.286;2022-09-09T05:17:09;14.90;;;4.18;;
61152;SDS011;47030;50.732;4.286;2022-09-09T05:19:35;15.25;;;3.90;;
61152;SDS011;47030;50.732;4.286;2022-09-09T05:22:01;10.65;;;3.37;;
61152;SDS011;47030;50.732;4.286;2022-09-09T05:24:27;12.02;;;3.50;;
61152;SDS011;47030;50.732;4.286;2022-09-09T05:26:53;12.55;;;3.03;;
61152;SDS011;47030;50.732;4.286;2022-09-09T05:29:21;9.07;;;2.67;;
61152;SDS011;47030;50.732;4.286;2022-09-09T05:31:46;11.63;;;3.10;;
61152;SDS011;47030;50.732;4.286;2022-09-09T05:34:12;10.65;;;3.10;;
61152;SDS011;47030;50.732;4.286;2022-09-09T05:36:38;10.27;;;2.97;;
61152;SDS011;47030;50.732;4.286;2022-09-09T05:39:04;11.93;;;3.42;;
61152;SDS011;47030;50.732;4.286;2022-09-09T05:41:30;11.27;;;3.35;;
61152;SDS011;47030;50.732;4.286;2022-09-09T05:43:56;13.70;;;3.03;;
61152;SDS011;47030;50.732;4.286;2022-09-09T05:46:23;10.30;;;2.58;;
61152;SDS011;47030;50.732;4.286;2022-09-09T05:48:50;8.85;;;2.53;;
61152;SDS011;47030;50.732;4.286;2022-09-09T05:51:17;10.77;;;2.58;;
61152;SDS011;47030;50.732;4.286;2022-09-09T05:53:55;8.50;;;2.67;;
61152;SDS011;47030;50.732;4.286;2022-09-09T05:56:24;12.05;;;2.78;;
61152;SDS011;47030;50.732;4.286;2022-09-09T05:58:52;10.27;;;2.80;;
61152;SDS011;47030;50.732;4.286;2022-09-09T06:01:22;13.55;;;3.03;;
61152;SDS011;47030;50.732;4.286;2022-09-09T06:03:50;12.48;;;3.35;;
61152;SDS011;47030;50.732;4.286;2022-09-09T06:06:18;12.93;;;2.65;;
61152;SDS011;47030;50.732;4.286;2022-09-09T06:08:52;7.85;;;2.83;;
61152;SDS011;47030;50.732;4.286;2022-09-09T06:11:22;16.15;;;2.85;;
61152;SDS011;47030;50.732;4.286;2022-09-09T06:13:51;12.70;;;2.90;;
61152;SDS011;47030;50.732;4.286;2022-09-09T06:16:19;6.75;;;1.98;;
61152;SDS011;47030;50.732;4.286;2022-09-09T06:18:48;11.05;;;2.90;;
61152;SDS011;47030;50.732;4.286;2022-09-09T06:21:16;9.95;;;2.53;;
61152;SDS011;47030;50.732;4.286;2022-09-09T06:23:44;9.27;;;2.78;;
61152;SDS011;47030;50.732;4.286;2022-09-09T06:26:12;11.60;;;2.58;;
61152;SDS011;47030;50.732;4.286;2022-09-09T06:28:39;9.07;;;2.42;;
61152;SDS011;47030;50.732;4.286;2022-09-09T06:31:08;10.68;;;2.72;;
61152;SDS011;47030;50.732;4.286;2022-09-09T06:33:36;11.43;;;2.75;;
61152;SDS011;47030;50.732;4.286;2022-09-09T06:36:10;10.38;;;2.35;;
61152;SDS011;47030;50.732;4.286;2022-09-09T06:38:37;8.55;;;2.35;;
61152;SDS011;47030;50.732;4.286;2022-09-09T06:41:03;12.37;;;2.60;;
61152;SDS011;47030;50.732;4.286;2022-09-09T06:43:30;8.25;;;2.28;;
61152;SDS011;47030;50.732;4.286;2022-09-09T06:48:24;12.35;;;2.65;;
61152;SDS011;47030;50.732;4.286;2022-09-09T06:51:09;11.95;;;2.85;;
61152;SDS011;47030;50.732;4.286;2022-09-09T06:53:51;14.10;;;3.25;;
61152;SDS011;47030;50.732;4.286;2022-09-09T06:56:28;6.03;;;2.12;;
61152;SDS011;47030;50.732;4.286;2022-09-09T06:58:56;10.00;;;2.37;;
61152;SDS011;47030;50.732;4.286;2022-09-09T07:01:27;9.52;;;2.12;;
61152;SDS011;47030;50.732;4.286;2022-09-09T07:03:55;9.77;;;2.20;;
61152;SDS011;47030;50.732;4.286;2022-09-09T07:06:34;9.27;;;2.35;;
61152;SDS011;47030;50.732;4.286;2022-09-09T07:09:02;14.45;;;2.83;;
61152;SDS011;47030;50.732;4.286;2022-09-09T07:11:30;10.60;;;2.65;;
61152;SDS011;47030;50.732;4.286;2022-09-09T07:13:58;9.30;;;2.30;;
61152;SDS011;47030;50.732;4.286;2022-09-09T07:16:25;10.32;;;2.67;;
61152;SDS011;47030;50.732;4.286;2022-09-09T07:18:56;8.05;;;2.75;;
61152;SDS011;47030;50.732;4.286;2022-09-09T07:21:26;11.43;;;2.70;;
61152;SDS011;47030;50.732;4.286;2022-09-09T07:23:53;9.13;;;2.60;;
61152;SDS011;47030;50.732;4.286;2022-09-09T07:26:20;9.63;;;2.42;;
61152;SDS011;47030;50.732;4.286;2022-09-09T07:28:47;17.77;;;2.95;;
61152;SDS011;47030;50.732;4.286;2022-09-09T07:31:17;11.15;;;3.17;;
61152;SDS011;47030;50.732;4.286;2022-09-09T07:33:45;6.45;;;2.53;;
61152;SDS011;47030;50.732;4.286;2022-09-09T07:36:16;13.27;;;3.08;;
61152;SDS011;47030;50.732;4.286;2022-09-09T07:38:46;10.95;;;3.47;;
61152;SDS011;47030;50.732;4.286;2022-09-09T07:41:18;10.75;;;3.10;;
61152;SDS011;47030;50.732;4.286;2022-09-09T07:43:47;10.25;;;3.28;;
61152;SDS011;47030;50.732;4.286;2022-09-09T07:46:15;9.07;;;2.80;;
61152;SDS011;47030;50.732;4.286;2022-09-09T07:48:52;8.68;;;3.08;;
61152;SDS011;47030;50.732;4.286;2022-09-09T07:51:20;12.85;;;3.10;;
61152;SDS011;47030;50.732;4.286;2022-09-09T07:53:52;7.55;;;2.78;;
61152;SDS011;47030;50.732;4.286;2022-09-09T07:56:19;8.38;;;3.35;;
61152;SDS011;47030;50.732;4.286;2022-09-09T07:58:48;10.43;;;2.70;;
61152;SDS011;47030;50.732;4.286;2022-09-09T08:01:15;7.57;;;2.42;;
61152;SDS011;47030;50.732;4.286;2022-09-09T08:03:46;13.13;;;2.78;;
61152;SDS011;47030;50.732;4.286;2022-09-09T08:06:17;9.93;;;2.25;;
61152;SDS011;47030;50.732;4.286;2022-09-09T08:08:43;8.70;;;2.37;;
61152;SDS011;47030;50.732;4.286;2022-09-09T08:11:11;6.50;;;1.98;;
61152;SDS011;47030;50.732;4.286;2022-09-09T08:13:39;8.43;;;2.58;;
61152;SDS011;47030;50.732;4.286;2022-09-09T08:18:37;6.68;;;1.95;;
61152;SDS011;47030;50.732;4.286;2022-09-09T08:21:12;8.48;;;2.35;;
61152;SDS011;47030;50.732;4.286;2022-09-09T08:23:44;6.35;;;1.90;;
61152;SDS011;47030;50.732;4.286;2022-09-09T08:26:15;8.15;;;2.25;;
61152;SDS011;47030;50.732;4.286;2022-09-09T08:28:45;6.60;;;2.30;;
61152;SDS011;47030;50.732;4.286;2022-09-09T08:31:12;7.75;;;2.03;;
61152;SDS011;47030;50.732;4.286;2022-09-09T08:33:41;9.90;;;2.83;;
61152;SDS011;47030;50.732;4.286;2022-09-09T08:36:11;10.73;;;2.22;;
61152;SDS011;47030;50.732;4.286;2022-09-09T08:38:48;9.27;;;2.53;;
61152;SDS011;47030;50.732;4.286;2022-09-09T08:44:03;6.32;;;2.72;;
61152;SDS011;47030;50.732;4.286;2022-09-09T08:52:02;9.18;;;2.62;;
61152;SDS011;47030;50.732;4.286;2022-09-09T08:54:32;11.43;;;2.55;;
61152;SDS011;47030;50.732;4.286;2022-09-09T08:57:01;13.95;;;3.22;;
61152;SDS011;47030;50.732;4.286;2022-09-09T08:59:27;6.32;;;2.47;;
61152;SDS011;47030;50.732;4.286;2022-09-09T09:07:37;13.52;;;2.95;;
61152;SDS011;47030;50.732;4.286;2022-09-09T09:13:17;11.85;;;3.05;;
61152;SDS011;47030;50.732;4.286;2022-09-09T09:15:47;12.75;;;3.20;;
61152;SDS011;47030;50.732;4.286;2022-09-09T09:18:21;8.55;;;2.58;;
61152;SDS011;47030;50.732;4.286;2022-09-09T09:20:54;8.52;;;2.83;;
61152;SDS011;47030;50.732;4.286;2022-09-09T09:23:22;10.75;;;2.92;;
61152;SDS011;47030;50.732;4.286;2022-09-09T09:25:50;7.18;;;2.92;;
61152;SDS011;47030;50.732;4.286;2022-09-09T09:28:23;8.73;;;2.75;;
61152;SDS011;47030;50.732;4.286;2022-09-09T09:30:58;8.63;;;2.83;;
61152;SDS011;47030;50.732;4.286;2022-09-09T09:33:43;8.98;;;2.83;;
61152;SDS011;47030;50.732;4.286;2022-09-09T09:36:18;9.85;;;2.95;;
61152;SDS011;47030;50.732;4.286;2022-09-09T09:38:59;10.07;;;2.75;;
61152;SDS011;47030;50.732;4.286;2022-09-09T09:41:34;8.13;;;2.78;;
61152;SDS011;47030;50.732;4.286;2022-09-09T09:44:05;7.65;;;3.22;;
61152;SDS011;47030;50.732;4.286;2022-09-09T09:46:46;9.93;;;3.00;;
61152;SDS011;47030;50.732;4.286;2022-09-09T09:49:12;4.93;;;2.58;;
61152;SDS011;47030;50.732;4.286;2022-09-09T09:51:38;7.60;;;2.58;;
61152;SDS011;47030;50.732;4.286;2022-09-09T09:56:34;8.70;;;2.72;;
61152;SDS011;47030;50.732;4.286;2022-09-09T09:59:00;9.50;;;2.28;;
61152;SDS011;47030;50.732;4.286;2022-09-09T10:01:27;9.40;;;2.62;;
61152;SDS011;47030;50.732;4.286;2022-09-09T10:04:15;6.72;;;3.15;;
61152;SDS011;47030;50.732;4.286;2022-09-09T10:06:48;15.75;;;3.87;;
61152;SDS011;47030;50.732;4.286;2022-09-09T10:11:55;6.80;;;2.70;;
61152;SDS011;47030;50.732;4.286;2022-09-09T10:14:47;7.72;;;2.67;;
61152;SDS011;47030;50.732;4.286;2022-09-09T10:22:50;8.07;;;2.80;;
61152;SDS011;47030;50.732;4.286;2022-09-09T10:25:26;8.20;;;3.35;;
61152;SDS011;47030;50.732;4.286;2022-09-09T10:28:14;8.68;;;2.55;;
61152;SDS011;47030;50.732;4.286;2022-09-09T10:36:06;11.35;;;2.72;;
61152;SDS011;47030;50.732;4.286;2022-09-09T10:38:46;12.82;;;2.70;;
61152;SDS011;47030;50.732;4.286;2022-09-09T10:52:28;11.05;;;2.50;;
61152;SDS011;47030;50.732;4.286;2022-09-09T10:57:50;11.75;;;2.60;;
61152;SDS011;47030;50.732;4.286;2022-09-09T11:00:24;6.90;;;2.20;;
61152;SDS011;47030;50.732;4.286;2022-09-09T11:03:06;5.80;;;2.20;;
61152;SDS011;47030;50.732;4.286;2022-09-09T11:05:49;12.02;;;2.53;;
61152;SDS011;47030;50.732;4.286;2022-09-09T11:08:23;9.77;;;2.05;;
61152;SDS011;47030;50.732;4.286;2022-09-09T11:10:52;8.65;;;1.95;;
61152;SDS011;47030;50.732;4.286;2022-09-09T11:13:24;8.50;;;2.45;;
61152;SDS011;47030;50.732;4.286;2022-09-09T11:18:44;8.75;;;2.35;;
61152;SDS011;47030;50.732;4.286;2022-09-09T11:21:34;4.15;;;2.00;;
61152;SDS011;47030;50.732;4.286;2022-09-09T11:24:05;8.73;;;2.60;;
61152;SDS011;47030;50.732;4.286;2022-09-09T11:26:38;10.07;;;2.65;;
61152;SDS011;47030;50.732;4.286;2022-09-09T11:42:44;6.22;;;2.12;;
61152;SDS011;47030;50.732;4.286;2022-09-09T11:47:54;10.50;;;2.35;;
61152;SDS011;47030;50.732;4.286;2022-09-09T11:52:48;9.43;;;2.20;;
61152;SDS011;47030;50.732;4.286;2022-09-09T11:55:24;9.23;;;2.50;;
61152;SDS011;47030;50.732;4.286;2022-09-09T11:58:01;5.68;;;2.30;;
61152;SDS011;47030;50.732;4.286;2022-09-09T12:00:35;7.93;;;2.30;;
61152;SDS011;47030;50.732;4.286;2022-09-09T12:08:50;6.15;;;2.10;;
61152;SDS011;47030;50.732;4.286;2022-09-09T12:11:25;10.38;;;2.25;;
61152;SDS011;47030;50.732;4.286;2022-09-09T12:13:53;5.20;;;2.05;;
61152;SDS011;47030;50.732;4.286;2022-09-09T12:16:33;5.28;;;1.90;;
61152;SDS011;47030;50.732;4.286;2022-09-09T12:24:26;4.15;;;1.70;;
61152;SDS011;47030;50.732;4.286;2022-09-09T12:29:35;9.68;;;1.85;;
61152;SDS011;47030;50.732;4.286;2022-09-09T12:32:11;7.78;;;2.17;;
61152;SDS011;47030;50.732;4.286;2022-09-09T12:34:44;6.70;;;1.95;;
61152;SDS011;47030;50.732;4.286;2022-09-09T12:39:55;4.90;;;1.67;;
61152;SDS011;47030;50.732;4.286;2022-09-09T12:42:22;8.57;;;2.08;;
61152;SDS011;47030;50.732;4.286;2022-09-09T12:44:59;6.37;;;1.95;;
61152;SDS011;47030;50.732;4.286;2022-09-09T12:47:33;5.45;;;1.80;;
61152;SDS011;47030;50.732;4.286;2022-09-09T12:50:23;2.67;;;1.50;;
61152;SDS011;47030;50.732;4.286;2022-09-09T12:52:55;5.18;;;1.75;;
61152;SDS011;47030;50.732;4.286;2022-09-09T12:55:24;4.37;;;1.80;;
61152;SDS011;47030;50.732;4.286;2022-09-09T12:57:55;4.93;;;1.42;;
61152;SDS011;47030;50.732;4.286;2022-09-09T13:00:23;4.72;;;1.80;;
61152;SDS011;47030;50.732;4.286;2022-09-09T13:02:54;4.82;;;1.60;;
61152;SDS011;47030;50.732;4.286;2022-09-09T13:05:41;5.80;;;1.90;;
61152;SDS011;47030;50.732;4.286;2022-09-09T13:08:13;6.45;;;1.70;;
61152;SDS011;47030;50.732;4.286;2022-09-09T13:13:15;4.70;;;1.62;;
61152;SDS011;47030;50.732;4.286;2022-09-09T13:15:56;4.43;;;1.60;;
61152;SDS011;47030;50.732;4.286;2022-09-09T13:18:24;5.68;;;1.87;;
61152;SDS011;47030;50.732;4.286;2022-09-09T13:20:54;6.20;;;1.85;;
61152;SDS011;47030;50.732;4.286;2022-09-09T13:23:23;4.62;;;1.80;;
61152;SDS011;47030;50.732;4.286;2022-09-09T13:26:00;7.43;;;1.42;;
61152;SDS011;47030;50.732;4.286;2022-09-09T13:28:29;3.92;;;1.40;;
61152;SDS011;47030;50.732;4.286;2022-09-09T13:31:19;5.00;;;1.60;;
61152;SDS011;47030;50.732;4.286;2022-09-09T13:33:46;4.57;;;1.62;;
61152;SDS011;47030;50.732;4.286;2022-09-09T13:36:12;6.80;;;1.60;;
61152;SDS011;47030;50.732;4.286;2022-09-09T13:41:24;3.37;;;1.45;;
61152;SDS011;47030;50.732;4.286;2022-09-09T13:43:55;2.85;;;1.30;;
61152;SDS011;47030;50.732;4.286;2022-09-09T13:46:27;2.67;;;1.10;;
61152;SDS011;47030;50.732;4.286;2022-09-09T13:48:58;3.15;;;1.33;;
61152;SDS011;47030;50.732;4.286;2022-09-09T13:51:30;3.62;;;1.25;;
61152;SDS011;47030;50.732;4.286;2022-09-09T13:53:57;2.97;;;1.40;;
61152;SDS011;47030;50.732;4.286;2022-09-09T13:56:25;3.58;;;1.60;;
61152;SDS011;47030;50.732;4.286;2022-09-09T13:58:51;5.10;;;1.60;;
61152;SDS011;47030;50.732;4.286;2022-09-09T14:01:17;2.25;;;1.25;;
61152;SDS011;47030;50.732;4.286;2022-09-09T14:03:43;3.05;;;1.37;;
61152;SDS011;47030;50.732;4.286;2022-09-09T14:06:09;5.40;;;1.60;;
61152;SDS011;47030;50.732;4.286;2022-09-09T14:08:36;3.90;;;1.70;;
61152;SDS011;47030;50.732;4.286;2022-09-09T14:11:05;3.35;;;1.40;;
61152;SDS011;47030;50.732;4.286;2022-09-09T14:13:31;7.62;;;1.90;;
61152;SDS011;47030;50.732;4.286;2022-09-09T14:15:57;6.87;;;2.53;;
61152;SDS011;47030;50.732;4.286;2022-09-09T14:18:23;6.00;;;1.90;;
61152;SDS011;47030;50.732;4.286;2022-09-09T14:20:50;8.23;;;1.77;;
61152;SDS011;47030;50.732;4.286;2022-09-09T14:23:16;4.68;;;1.90;;
61152;SDS011;47030;50.732;4.286;2022-09-09T14:25:43;5.87;;;2.00;;
61152;SDS011;47030;50.732;4.286;2022-09-09T14:28:09;4.60;;;1.90;;
61152;SDS011;47030;50.732;4.286;2022-09-09T14:30:37;3.45;;;1.75;;
61152;SDS011;47030;50.732;4.286;2022-09-09T14:33:03;7.60;;;1.67;;
61152;SDS011;47030;50.732;4.286;2022-09-09T14:35:29;4.45;;;1.62;;
61152;SDS011;47030;50.732;4.286;2022-09-09T14:37:55;3.33;;;1.40;;
61152;SDS011;47030;50.732;4.286;2022-09-09T14:40:21;7.47;;;1.90;;
61152;SDS011;47030;50.732;4.286;2022-09-09T14:42:47;4.10;;;1.70;;
61152;SDS011;47030;50.732;4.286;2022-09-09T14:45:13;4.03;;;1.70;;
61152;SDS011;47030;50.732;4.286;2022-09-09T14:47:38;7.32;;;1.62;;
61152;SDS011;47030;50.732;4.286;2022-09-09T14:50:05;5.60;;;1.77;;
61152;SDS011;47030;50.732;4.286;2022-09-09T14:52:31;5.72;;;1.50;;
61152;SDS011;47030;50.732;4.286;2022-09-09T14:54:57;4.22;;;1.52;;
61152;SDS011;47030;50.732;4.286;2022-09-09T14:57:22;4.40;;;1.60;;
61152;SDS011;47030;50.732;4.286;2022-09-09T14:59:48;6.30;;;1.65;;
61152;SDS011;47030;50.732;4.286;2022-09-09T15:02:15;8.80;;;2.05;;
61152;SDS011;47030;50.732;4.286;2022-09-09T15:04:41;6.53;;;1.70;;
61152;SDS011;47030;50.732;4.286;2022-09-09T15:07:07;5.12;;;1.80;;
61152;SDS011;47030;50.732;4.286;2022-09-09T15:09:33;8.25;;;1.87;;
61152;SDS011;47030;50.732;4.286;2022-09-09T15:11:58;4.12;;;1.20;;
61152;SDS011;47030;50.732;4.286;2022-09-09T15:14:25;5.65;;;1.90;;
61152;SDS011;47030;50.732;4.286;2022-09-09T15:16:51;7.32;;;1.85;;
61152;SDS011;47030;50.732;4.286;2022-09-09T15:19:17;6.93;;;1.67;;
61152;SDS011;47030;50.732;4.286;2022-09-09T15:21:43;5.18;;;1.40;;
61152;SDS011;47030;50.732;4.286;2022-09-09T15:24:09;4.47;;;1.60;;
61152;SDS011;47030;50.732;4.286;2022-09-09T15:26:35;4.15;;;1.90;;
61152;SDS011;47030;50.732;4.286;2022-09-09T15:29:03;5.97;;;2.22;;
61152;SDS011;47030;50.732;4.286;2022-09-09T15:31:29;3.30;;;1.42;;
61152;SDS011;47030;50.732;4.286;2022-09-09T15:34:06;4.62;;;1.50;;
61152;SDS011;47030;50.732;4.286;2022-09-09T15:36:33;4.57;;;1.50;;
61152;SDS011;47030;50.732;4.286;2022-09-09T15:39:04;6.28;;;1.77;;
61152;SDS011;47030;50.732;4.286;2022-09-09T15:41:32;4.30;;;1.95;;
61152;SDS011;47030;50.732;4.286;2022-09-09T15:43:59;9.00;;;1.52;;
61152;SDS011;47030;50.732;4.286;2022-09-09T15:48:57;4.00;;;1.75;;
61152;SDS011;47030;50.732;4.286;2022-09-09T15:51:27;5.87;;;1.67;;
61152;SDS011;47030;50.732;4.286;2022-09-09T15:53:54;5.40;;;1.83;;
61152;SDS011;47030;50.732;4.286;2022-09-09T15:56:21;3.72;;;1.60;;
61152;SDS011;47030;50.732;4.286;2022-09-09T15:58:47;3.60;;;1.50;;
61152;SDS011;47030;50.732;4.286;2022-09-09T16:01:13;4.22;;;1.60;;
61152;SDS011;47030;50.732;4.286;2022-09-09T16:03:41;8.23;;;1.67;;
61152;SDS011;47030;50.732;4.286;2022-09-09T16:08:43;4.35;;;1.70;;
61152;SDS011;47030;50.732;4.286;2022-09-09T16:11:12;5.97;;;1.67;;
61152;SDS011;47030;50.732;4.286;2022-09-09T16:13:40;6.53;;;1.85;;
61152;SDS011;47030;50.732;4.286;2022-09-09T16:16:08;5.10;;;1.77;;
61152;SDS011;47030;50.732;4.286;2022-09-09T16:18:36;6.30;;;2.10;;
61152;SDS011;47030;50.732;4.286;2022-09-09T16:21:06;5.53;;;1.70;;
61152;SDS011;47030;50.732;4.286;2022-09-09T16:23:33;5.05;;;1.73;;
61152;SDS011;47030;50.732;4.286;2022-09-09T16:26:01;5.55;;;1.50;;
61152;SDS011;47030;50.732;4.286;2022-09-09T16:28:27;5.50;;;1.75;;
61152;SDS011;47030;50.732;4.286;2022-09-09T16:30:54;5.18;;;1.75;;
61152;SDS011;47030;50.732;4.286;2022-09-09T16:33:20;4.35;;;1.60;;
61152;SDS011;47030;50.732;4.286;2022-09-09T16:35:47;5.00;;;2.10;;
61152;SDS011;47030;50.732;4.286;2022-09-09T16:38:14;3.00;;;1.20;;
61152;SDS011;47030;50.732;4.286;2022-09-09T16:40:40;4.85;;;1.50;;
61152;SDS011;47030;50.732;4.286;2022-09-09T16:43:06;4.07;;;1.40;;
61152;SDS011;47030;50.732;4.286;2022-09-09T16:45:34;2.80;;;1.40;;
61152;SDS011;47030;50.732;4.286;2022-09-09T16:48:06;4.00;;;1.30;;
61152;SDS011;47030;50.732;4.286;2022-09-09T16:50:31;5.45;;;1.58;;
61152;SDS011;47030;50.732;4.286;2022-09-09T16:52:57;4.47;;;1.52;;
61152;SDS011;47030;50.732;4.286;2022-09-09T16:55:23;4.82;;;1.60;;
61152;SDS011;47030;50.732;4.286;2022-09-09T16:57:49;7.55;;;1.48;;
61152;SDS011;47030;50.732;4.286;2022-09-09T17:00:15;4.68;;;1.80;;
61152;SDS011;47030;50.732;4.286;2022-09-09T17:02:44;5.60;;;1.90;;
61152;SDS011;47030;50.732;4.286;2022-09-09T17:05:10;3.30;;;1.45;;
61152;SDS011;47030;50.732;4.286;2022-09-09T17:07:37;4.68;;;1.27;;
61152;SDS011;47030;50.732;4.286;2022-09-09T17:10:04;5.28;;;1.67;;
61152;SDS011;47030;50.732;4.286;2022-09-09T17:12:30;5.72;;;1.50;;
61152;SDS011;47030;50.732;4.286;2022-09-09T17:14:57;4.75;;;1.40;;
61152;SDS011;47030;50.732;4.286;2022-09-09T17:17:26;11.38;;;2.05;;
61152;SDS011;47030;50.732;4.286;2022-09-09T17:19:52;4.28;;;1.50;;
61152;SDS011;47030;50.732;4.286;2022-09-09T17:22:18;4.70;;;1.60;;
61152;SDS011;47030;50.732;4.286;2022-09-09T17:24:48;4.93;;;1.25;;
61152;SDS011;47030;50.732;4.286;2022-09-09T17:27:14;6.07;;;1.75;;
61152;SDS011;47030;50.732;4.286;2022-09-09T17:29:39;5.30;;;1.75;;
61152;SDS011;47030;50.732;4.286;2022-09-09T17:32:05;6.10;;;1.50;;
61152;SDS011;47030;50.732;4.286;2022-09-09T17:34:32;8.15;;;1.90;;